sensor_id;sensor_type;location;lat;lon;timestamp;P1;durP1;ratioP1;P2;durP2;ratioP2
25381;SDS011;16307;42.896;20.874;2023-03-01T00:02:24;15.90;;;8.13;;
25381;SDS011;16307;42.896;20.874;2023-03-01T00:05:10;19.30;;;8.20;;
25381;SDS011;16307;42.896;20.874;2023-03-01T00:07:56;20.20;;;9.07;;
25381;SDS011;16307;42.896;20.874;2023-03-01T00:10:41;18.70;;;8.57;;
25381;SDS011;16307;42.896;20.874;2023-03-01T00:13:27;17.42;;;9.02;;
25381;SDS011;16307;42.896;20.874;2023-03-01T00:16:15;18.30;;;8.75;;
25381;SDS011;16307;42.896;20.874;2023-03-01T00:19:07;25.48;;;8.95;;
25381;SDS011;16307;42.896;20.874;2023-03-01T00:21:55;18.40;;;8.48;;
25381;SDS011;16307;42.896;20.874;2023-03-01T00:24:41;18.35;;;8.65;;
25381;SDS011;16307;42.896;20.874;2023-03-01T00:27:27;16.77;;;9.05;;
25381;SDS011;16307;42.896;20.874;2023-03-01T00:30:13;15.85;;;8.10;;
25381;SDS011;16307;42.896;20.874;2023-03-01T00:32:58;17.10;;;8.40;;
25381;SDS011;16307;42.896;20.874;2023-03-01T00:35:45;16.92;;;8.55;;
25381;SDS011;16307;42.896;20.874;2023-03-01T00:38:34;23.75;;;9.68;;
25381;SDS011;16307;42.896;20.874;2023-03-01T00:41:21;22.63;;;8.75;;
25381;SDS011;16307;42.896;20.874;2023-03-01T00:44:07;19.10;;;8.02;;
25381;SDS011;16307;42.896;20.874;2023-03-01T00:46:54;17.70;;;9.20;;
25381;SDS011;16307;42.896;20.874;2023-03-01T00:49:40;16.75;;;7.25;;
25381;SDS011;16307;42.896;20.874;2023-03-01T00:52:26;15.40;;;7.68;;
25381;SDS011;16307;42.896;20.874;2023-03-01T00:55:12;16.08;;;7.80;;
25381;SDS011;16307;42.896;20.874;2023-03-01T00:57:59;14.73;;;7.57;;
25381;SDS011;16307;42.896;20.874;2023-03-01T01:00:45;16.70;;;8.27;;
25381;SDS011;16307;42.896;20.874;2023-03-01T01:03:32;24.48;;;8.55;;
25381;SDS011;16307;42.896;20.874;2023-03-01T01:06:22;19.38;;;8.50;;
25381;SDS011;16307;42.896;20.874;2023-03-01T01:09:14;18.55;;;7.85;;
25381;SDS011;16307;42.896;20.874;2023-03-01T01:12:05;20.95;;;7.03;;
25381;SDS011;16307;42.896;20.874;2023-03-01T01:14:52;13.30;;;7.13;;
25381;SDS011;16307;42.896;20.874;2023-03-01T01:17:38;13.82;;;6.43;;
25381;SDS011;16307;42.896;20.874;2023-03-01T01:20:24;11.60;;;6.57;;
25381;SDS011;16307;42.896;20.874;2023-03-01T01:23:10;13.05;;;6.88;;
25381;SDS011;16307;42.896;20.874;2023-03-01T01:25:56;14.00;;;7.20;;
25381;SDS011;16307;42.896;20.874;2023-03-01T01:28:42;15.35;;;6.88;;
25381;SDS011;16307;42.896;20.874;2023-03-01T01:31:28;19.00;;;6.50;;
25381;SDS011;16307;42.896;20.874;2023-03-01T01:34:16;16.23;;;7.05;;
25381;SDS011;16307;42.896;20.874;2023-03-01T01:37:10;14.65;;;6.93;;
25381;SDS011;16307;42.896;20.874;2023-03-01T01:40:00;15.60;;;6.50;;
25381;SDS011;16307;42.896;20.874;2023-03-01T01:42:48;11.73;;;6.22;;
25381;SDS011;16307;42.896;20.874;2023-03-01T01:45:35;11.82;;;5.85;;
25381;SDS011;16307;42.896;20.874;2023-03-01T01:48:22;11.25;;;6.80;;
25381;SDS011;16307;42.896;20.874;2023-03-01T01:51:13;10.85;;;6.10;;
25381;SDS011;16307;42.896;20.874;2023-03-01T01:54:14;10.93;;;6.28;;
25381;SDS011;16307;42.896;20.874;2023-03-01T01:57:06;16.20;;;6.70;;
25381;SDS011;16307;42.896;20.874;2023-03-01T01:59:56;12.73;;;6.82;;
25381;SDS011;16307;42.896;20.874;2023-03-01T02:02:45;11.80;;;6.15;;
25381;SDS011;16307;42.896;20.874;2023-03-01T02:08:45;13.10;;;5.90;;
25381;SDS011;16307;42.896;20.874;2023-03-01T02:11:33;10.35;;;5.85;;
25381;SDS011;16307;42.896;20.874;2023-03-01T02:14:19;10.35;;;5.78;;
25381;SDS011;16307;42.896;20.874;2023-03-01T02:17:05;9.20;;;5.65;;
25381;SDS011;16307;42.896;20.874;2023-03-01T02:22:46;12.90;;;6.20;;
25381;SDS011;16307;42.896;20.874;2023-03-01T02:28:51;16.80;;;5.78;;
25381;SDS011;16307;42.896;20.874;2023-03-01T02:31:37;9.25;;;5.50;;
25381;SDS011;16307;42.896;20.874;2023-03-01T02:34:31;14.30;;;5.65;;
25381;SDS011;16307;42.896;20.874;2023-03-01T02:37:18;11.65;;;5.30;;
25381;SDS011;16307;42.896;20.874;2023-03-01T02:40:14;11.77;;;5.63;;
25381;SDS011;16307;42.896;20.874;2023-03-01T02:43:03;11.48;;;5.93;;
25381;SDS011;16307;42.896;20.874;2023-03-01T02:45:51;12.32;;;5.40;;
25381;SDS011;16307;42.896;20.874;2023-03-01T02:48:45;12.45;;;5.30;;
25381;SDS011;16307;42.896;20.874;2023-03-01T02:54:33;12.30;;;5.85;;
25381;SDS011;16307;42.896;20.874;2023-03-01T02:57:23;13.75;;;5.65;;
25381;SDS011;16307;42.896;20.874;2023-03-01T03:00:10;12.88;;;6.13;;
25381;SDS011;16307;42.896;20.874;2023-03-01T03:03:06;11.52;;;5.40;;
25381;SDS011;16307;42.896;20.874;2023-03-01T03:05:52;14.07;;;6.18;;
25381;SDS011;16307;42.896;20.874;2023-03-01T03:08:38;13.20;;;6.35;;
25381;SDS011;16307;42.896;20.874;2023-03-01T03:11:25;15.95;;;6.82;;
25381;SDS011;16307;42.896;20.874;2023-03-01T03:14:13;15.20;;;6.55;;
25381;SDS011;16307;42.896;20.874;2023-03-01T03:17:03;12.35;;;6.18;;
25381;SDS011;16307;42.896;20.874;2023-03-01T03:19:51;12.63;;;5.80;;
25381;SDS011;16307;42.896;20.874;2023-03-01T03:22:38;16.35;;;6.53;;
25381;SDS011;16307;42.896;20.874;2023-03-01T03:25:26;14.35;;;6.65;;
25381;SDS011;16307;42.896;20.874;2023-03-01T03:28:12;13.15;;;5.85;;
25381;SDS011;16307;42.896;20.874;2023-03-01T03:30:58;12.00;;;6.20;;
25381;SDS011;16307;42.896;20.874;2023-03-01T03:33:48;15.10;;;6.68;;
25381;SDS011;16307;42.896;20.874;2023-03-01T03:36:34;12.48;;;6.63;;
25381;SDS011;16307;42.896;20.874;2023-03-01T03:39:21;15.93;;;6.55;;
25381;SDS011;16307;42.896;20.874;2023-03-01T03:42:07;20.48;;;7.53;;
25381;SDS011;16307;42.896;20.874;2023-03-01T03:44:53;15.75;;;6.88;;
25381;SDS011;16307;42.896;20.874;2023-03-01T03:47:38;12.77;;;6.15;;
25381;SDS011;16307;42.896;20.874;2023-03-01T03:50:24;11.35;;;6.40;;
25381;SDS011;16307;42.896;20.874;2023-03-01T03:53:11;18.67;;;6.70;;
25381;SDS011;16307;42.896;20.874;2023-03-01T03:55:57;16.40;;;6.68;;
25381;SDS011;16307;42.896;20.874;2023-03-01T03:58:44;19.58;;;6.93;;
25381;SDS011;16307;42.896;20.874;2023-03-01T04:01:29;17.63;;;7.68;;
25381;SDS011;16307;42.896;20.874;2023-03-01T04:04:15;12.75;;;7.32;;
25381;SDS011;16307;42.896;20.874;2023-03-01T04:07:04;15.13;;;6.38;;
25381;SDS011;16307;42.896;20.874;2023-03-01T04:09:50;19.90;;;7.47;;
25381;SDS011;16307;42.896;20.874;2023-03-01T04:12:36;13.45;;;6.90;;
25381;SDS011;16307;42.896;20.874;2023-03-01T04:15:23;15.80;;;7.10;;
25381;SDS011;16307;42.896;20.874;2023-03-01T04:18:14;15.55;;;6.95;;
25381;SDS011;16307;42.896;20.874;2023-03-01T04:21:01;20.13;;;7.65;;
25381;SDS011;16307;42.896;20.874;2023-03-01T04:23:47;16.63;;;7.20;;
25381;SDS011;16307;42.896;20.874;2023-03-01T04:26:34;13.98;;;6.85;;
25381;SDS011;16307;42.896;20.874;2023-03-01T04:29:19;14.57;;;6.25;;
25381;SDS011;16307;42.896;20.874;2023-03-01T04:32:05;11.68;;;6.55;;
25381;SDS011;16307;42.896;20.874;2023-03-01T04:34:51;15.98;;;7.55;;
25381;SDS011;16307;42.896;20.874;2023-03-01T04:37:37;13.80;;;6.82;;
25381;SDS011;16307;42.896;20.874;2023-03-01T04:40:23;14.57;;;6.57;;
25381;SDS011;16307;42.896;20.874;2023-03-01T04:43:09;20.38;;;6.60;;
25381;SDS011;16307;42.896;20.874;2023-03-01T04:45:59;18.48;;;6.03;;
25381;SDS011;16307;42.896;20.874;2023-03-01T04:48:48;17.77;;;7.05;;
25381;SDS011;16307;42.896;20.874;2023-03-01T04:51:34;11.27;;;6.97;;
25381;SDS011;16307;42.896;20.874;2023-03-01T04:54:23;11.90;;;6.32;;
25381;SDS011;16307;42.896;20.874;2023-03-01T04:57:08;15.45;;;6.95;;
25381;SDS011;16307;42.896;20.874;2023-03-01T04:59:54;10.32;;;6.05;;
25381;SDS011;16307;42.896;20.874;2023-03-01T05:02:41;15.88;;;6.38;;
25381;SDS011;16307;42.896;20.874;2023-03-01T05:05:33;14.85;;;6.20;;
25381;SDS011;16307;42.896;20.874;2023-03-01T05:08:22;14.77;;;6.25;;
25381;SDS011;16307;42.896;20.874;2023-03-01T05:11:08;12.70;;;5.82;;
25381;SDS011;16307;42.896;20.874;2023-03-01T05:13:56;11.35;;;6.53;;
25381;SDS011;16307;42.896;20.874;2023-03-01T05:16:42;13.13;;;5.78;;
25381;SDS011;16307;42.896;20.874;2023-03-01T05:19:28;14.93;;;6.60;;
25381;SDS011;16307;42.896;20.874;2023-03-01T05:22:14;12.52;;;6.55;;
25381;SDS011;16307;42.896;20.874;2023-03-01T05:24:59;15.00;;;6.25;;
25381;SDS011;16307;42.896;20.874;2023-03-01T05:27:46;14.57;;;5.97;;
25381;SDS011;16307;42.896;20.874;2023-03-01T05:30:34;15.95;;;6.57;;
25381;SDS011;16307;42.896;20.874;2023-03-01T05:33:22;15.13;;;7.32;;
25381;SDS011;16307;42.896;20.874;2023-03-01T05:36:09;15.68;;;6.75;;
25381;SDS011;16307;42.896;20.874;2023-03-01T05:38:55;19.23;;;7.53;;
25381;SDS011;16307;42.896;20.874;2023-03-01T05:41:41;19.52;;;7.75;;
25381;SDS011;16307;42.896;20.874;2023-03-01T05:44:28;22.90;;;8.38;;
25381;SDS011;16307;42.896;20.874;2023-03-01T05:47:15;14.27;;;6.88;;
25381;SDS011;16307;42.896;20.874;2023-03-01T05:50:01;12.25;;;6.20;;
25381;SDS011;16307;42.896;20.874;2023-03-01T05:52:51;19.98;;;6.88;;
25381;SDS011;16307;42.896;20.874;2023-03-01T05:55:43;16.27;;;7.28;;
25381;SDS011;16307;42.896;20.874;2023-03-01T05:58:29;21.30;;;6.80;;
25381;SDS011;16307;42.896;20.874;2023-03-01T06:01:16;12.40;;;5.72;;
25381;SDS011;16307;42.896;20.874;2023-03-01T06:04:02;14.75;;;6.90;;
25381;SDS011;16307;42.896;20.874;2023-03-01T06:06:49;18.05;;;7.50;;
25381;SDS011;16307;42.896;20.874;2023-03-01T06:09:35;16.65;;;6.38;;
25381;SDS011;16307;42.896;20.874;2023-03-01T06:12:21;14.15;;;6.00;;
25381;SDS011;16307;42.896;20.874;2023-03-01T06:15:07;13.25;;;6.05;;
25381;SDS011;16307;42.896;20.874;2023-03-01T06:17:55;12.63;;;7.03;;
25381;SDS011;16307;42.896;20.874;2023-03-01T06:20:45;16.83;;;5.97;;
25381;SDS011;16307;42.896;20.874;2023-03-01T06:23:38;16.15;;;6.97;;
25381;SDS011;16307;42.896;20.874;2023-03-01T06:26:24;15.65;;;6.28;;
25381;SDS011;16307;42.896;20.874;2023-03-01T06:29:10;12.63;;;6.18;;
25381;SDS011;16307;42.896;20.874;2023-03-01T06:31:56;11.30;;;6.43;;
25381;SDS011;16307;42.896;20.874;2023-03-01T06:34:42;12.73;;;6.28;;
25381;SDS011;16307;42.896;20.874;2023-03-01T06:37:28;10.95;;;6.20;;
25381;SDS011;16307;42.896;20.874;2023-03-01T06:40:15;18.85;;;6.65;;
25381;SDS011;16307;42.896;20.874;2023-03-01T06:43:01;14.15;;;7.20;;
25381;SDS011;16307;42.896;20.874;2023-03-01T06:45:47;15.38;;;6.15;;
25381;SDS011;16307;42.896;20.874;2023-03-01T06:48:33;15.90;;;7.18;;
25381;SDS011;16307;42.896;20.874;2023-03-01T06:51:19;13.63;;;6.50;;
25381;SDS011;16307;42.896;20.874;2023-03-01T06:54:05;13.13;;;6.55;;
25381;SDS011;16307;42.896;20.874;2023-03-01T06:56:51;14.68;;;6.53;;
25381;SDS011;16307;42.896;20.874;2023-03-01T06:59:38;15.00;;;6.85;;
25381;SDS011;16307;42.896;20.874;2023-03-01T07:02:24;14.30;;;6.90;;
25381;SDS011;16307;42.896;20.874;2023-03-01T07:05:10;16.92;;;6.55;;
25381;SDS011;16307;42.896;20.874;2023-03-01T07:07:56;14.05;;;6.80;;
25381;SDS011;16307;42.896;20.874;2023-03-01T07:10:42;18.48;;;6.95;;
25381;SDS011;16307;42.896;20.874;2023-03-01T07:13:28;13.50;;;6.63;;
25381;SDS011;16307;42.896;20.874;2023-03-01T07:16:13;18.95;;;6.85;;
25381;SDS011;16307;42.896;20.874;2023-03-01T07:19:00;14.90;;;7.10;;
25381;SDS011;16307;42.896;20.874;2023-03-01T07:21:46;18.80;;;7.57;;
25381;SDS011;16307;42.896;20.874;2023-03-01T07:24:31;17.25;;;7.43;;
25381;SDS011;16307;42.896;20.874;2023-03-01T07:27:17;17.55;;;6.90;;
25381;SDS011;16307;42.896;20.874;2023-03-01T07:30:03;16.85;;;7.75;;
25381;SDS011;16307;42.896;20.874;2023-03-01T07:32:49;20.35;;;7.32;;
25381;SDS011;16307;42.896;20.874;2023-03-01T07:35:37;19.08;;;6.63;;
25381;SDS011;16307;42.896;20.874;2023-03-01T07:38:23;14.48;;;7.03;;
25381;SDS011;16307;42.896;20.874;2023-03-01T07:41:09;15.60;;;7.40;;
25381;SDS011;16307;42.896;20.874;2023-03-01T07:43:55;12.48;;;7.55;;
25381;SDS011;16307;42.896;20.874;2023-03-01T07:46:41;17.77;;;7.13;;
25381;SDS011;16307;42.896;20.874;2023-03-01T07:49:27;15.75;;;8.10;;
25381;SDS011;16307;42.896;20.874;2023-03-01T07:52:13;15.65;;;7.38;;
25381;SDS011;16307;42.896;20.874;2023-03-01T07:54:59;21.17;;;7.53;;
25381;SDS011;16307;42.896;20.874;2023-03-01T07:57:44;17.52;;;7.53;;
25381;SDS011;16307;42.896;20.874;2023-03-01T08:00:30;13.65;;;7.00;;
25381;SDS011;16307;42.896;20.874;2023-03-01T08:03:17;18.48;;;7.85;;
25381;SDS011;16307;42.896;20.874;2023-03-01T08:06:03;13.73;;;7.05;;
25381;SDS011;16307;42.896;20.874;2023-03-01T08:08:50;16.90;;;6.82;;
25381;SDS011;16307;42.896;20.874;2023-03-01T08:11:36;12.18;;;7.18;;
25381;SDS011;16307;42.896;20.874;2023-03-01T08:14:23;18.05;;;7.68;;
25381;SDS011;16307;42.896;20.874;2023-03-01T08:17:09;11.98;;;6.63;;
25381;SDS011;16307;42.896;20.874;2023-03-01T08:19:55;13.02;;;6.80;;
25381;SDS011;16307;42.896;20.874;2023-03-01T08:22:41;15.93;;;7.78;;
25381;SDS011;16307;42.896;20.874;2023-03-01T08:25:27;18.92;;;7.82;;
25381;SDS011;16307;42.896;20.874;2023-03-01T08:28:12;17.45;;;6.82;;
25381;SDS011;16307;42.896;20.874;2023-03-01T08:30:58;18.73;;;9.32;;
25381;SDS011;16307;42.896;20.874;2023-03-01T08:33:44;12.88;;;7.85;;
25381;SDS011;16307;42.896;20.874;2023-03-01T08:36:37;14.77;;;8.23;;
25381;SDS011;16307;42.896;20.874;2023-03-01T08:39:25;17.83;;;9.80;;
25381;SDS011;16307;42.896;20.874;2023-03-01T08:42:11;21.45;;;11.30;;
25381;SDS011;16307;42.896;20.874;2023-03-01T08:44:57;22.77;;;12.75;;
25381;SDS011;16307;42.896;20.874;2023-03-01T08:47:44;39.38;;;17.20;;
25381;SDS011;16307;42.896;20.874;2023-03-01T08:50:30;26.35;;;14.70;;
25381;SDS011;16307;42.896;20.874;2023-03-01T08:53:16;33.50;;;16.30;;
25381;SDS011;16307;42.896;20.874;2023-03-01T08:56:02;26.52;;;14.40;;
25381;SDS011;16307;42.896;20.874;2023-03-01T08:58:49;27.02;;;14.25;;
25381;SDS011;16307;42.896;20.874;2023-03-01T09:01:35;27.95;;;12.40;;
25381;SDS011;16307;42.896;20.874;2023-03-01T09:04:22;29.75;;;13.63;;
25381;SDS011;16307;42.896;20.874;2023-03-01T09:07:08;21.67;;;12.43;;
25381;SDS011;16307;42.896;20.874;2023-03-01T09:09:55;24.80;;;12.77;;
25381;SDS011;16307;42.896;20.874;2023-03-01T09:12:41;22.35;;;10.98;;
25381;SDS011;16307;42.896;20.874;2023-03-01T09:15:27;19.95;;;10.88;;
25381;SDS011;16307;42.896;20.874;2023-03-01T09:18:12;20.00;;;11.38;;
25381;SDS011;16307;42.896;20.874;2023-03-01T09:21:02;18.88;;;10.38;;
25381;SDS011;16307;42.896;20.874;2023-03-01T09:23:52;23.15;;;10.88;;
25381;SDS011;16307;42.896;20.874;2023-03-01T09:26:38;21.45;;;10.80;;
25381;SDS011;16307;42.896;20.874;2023-03-01T09:29:24;17.23;;;10.00;;
25381;SDS011;16307;42.896;20.874;2023-03-01T09:32:11;21.00;;;11.32;;
25381;SDS011;16307;42.896;20.874;2023-03-01T09:34:57;26.20;;;11.55;;
25381;SDS011;16307;42.896;20.874;2023-03-01T09:37:46;24.75;;;11.57;;
25381;SDS011;16307;42.896;20.874;2023-03-01T09:40:32;26.60;;;13.98;;
25381;SDS011;16307;42.896;20.874;2023-03-01T09:46:13;24.00;;;10.98;;
25381;SDS011;16307;42.896;20.874;2023-03-01T09:49:05;19.50;;;10.60;;
25381;SDS011;16307;42.896;20.874;2023-03-01T09:55:14;21.05;;;10.68;;
25381;SDS011;16307;42.896;20.874;2023-03-01T10:04:46;18.95;;;9.63;;
25381;SDS011;16307;42.896;20.874;2023-03-01T10:10:43;20.15;;;10.90;;
25381;SDS011;16307;42.896;20.874;2023-03-01T10:13:45;20.60;;;9.68;;
25381;SDS011;16307;42.896;20.874;2023-03-01T10:19:44;23.48;;;10.68;;
25381;SDS011;16307;42.896;20.874;2023-03-01T10:22:31;19.20;;;10.13;;
25381;SDS011;16307;42.896;20.874;2023-03-01T10:28:36;17.58;;;9.98;;
25381;SDS011;16307;42.896;20.874;2023-03-01T10:31:53;15.70;;;8.82;;
25381;SDS011;16307;42.896;20.874;2023-03-01T10:34:40;17.30;;;10.15;;
25381;SDS011;16307;42.896;20.874;2023-03-01T10:37:26;19.92;;;11.68;;
25381;SDS011;16307;42.896;20.874;2023-03-01T10:40:13;25.13;;;11.95;;
25381;SDS011;16307;42.896;20.874;2023-03-01T10:42:59;26.63;;;9.40;;
25381;SDS011;16307;42.896;20.874;2023-03-01T10:45:47;15.65;;;8.82;;
25381;SDS011;16307;42.896;20.874;2023-03-01T10:48:33;15.70;;;9.05;;
25381;SDS011;16307;42.896;20.874;2023-03-01T10:51:20;16.77;;;8.98;;
25381;SDS011;16307;42.896;20.874;2023-03-01T10:57:24;25.63;;;11.80;;
25381;SDS011;16307;42.896;20.874;2023-03-01T11:03:10;25.10;;;11.95;;
25381;SDS011;16307;42.896;20.874;2023-03-01T11:06:05;21.77;;;11.95;;
25381;SDS011;16307;42.896;20.874;2023-03-01T11:09:20;29.02;;;15.45;;
25381;SDS011;16307;42.896;20.874;2023-03-01T11:12:13;27.85;;;15.43;;
25381;SDS011;16307;42.896;20.874;2023-03-01T11:15:00;31.40;;;15.60;;
25381;SDS011;16307;42.896;20.874;2023-03-01T11:17:47;31.00;;;16.10;;
25381;SDS011;16307;42.896;20.874;2023-03-01T11:20:43;32.63;;;17.60;;
25381;SDS011;16307;42.896;20.874;2023-03-01T11:23:29;38.47;;;19.63;;
25381;SDS011;16307;42.896;20.874;2023-03-01T11:26:16;41.00;;;18.75;;
25381;SDS011;16307;42.896;20.874;2023-03-01T11:29:04;32.70;;;18.38;;
25381;SDS011;16307;42.896;20.874;2023-03-01T11:31:52;34.58;;;19.13;;
25381;SDS011;16307;42.896;20.874;2023-03-01T11:34:47;37.13;;;20.25;;
25381;SDS011;16307;42.896;20.874;2023-03-01T11:37:43;57.70;;;25.52;;
25381;SDS011;16307;42.896;20.874;2023-03-01T11:40:40;35.38;;;18.52;;
25381;SDS011;16307;42.896;20.874;2023-03-01T11:43:44;33.13;;;15.63;;
25381;SDS011;16307;42.896;20.874;2023-03-01T11:46:45;32.22;;;16.40;;
25381;SDS011;16307;42.896;20.874;2023-03-01T11:58:37;25.45;;;14.27;;
25381;SDS011;16307;42.896;20.874;2023-03-01T12:10:40;26.48;;;14.63;;
25381;SDS011;16307;42.896;20.874;2023-03-01T12:23:10;23.95;;;12.65;;
25381;SDS011;16307;42.896;20.874;2023-03-01T12:29:30;24.45;;;12.68;;
25381;SDS011;16307;42.896;20.874;2023-03-01T12:32:34;25.60;;;13.10;;
25381;SDS011;16307;42.896;20.874;2023-03-01T12:38:36;29.65;;;14.90;;
25381;SDS011;16307;42.896;20.874;2023-03-01T12:48:00;22.10;;;12.80;;
25381;SDS011;16307;42.896;20.874;2023-03-01T12:50:54;23.77;;;13.55;;
25381;SDS011;16307;42.896;20.874;2023-03-01T12:53:47;24.70;;;14.23;;
25381;SDS011;16307;42.896;20.874;2023-03-01T12:56:35;25.67;;;12.73;;
25381;SDS011;16307;42.896;20.874;2023-03-01T13:02:22;23.40;;;11.50;;
25381;SDS011;16307;42.896;20.874;2023-03-01T13:05:19;31.30;;;17.75;;
25381;SDS011;16307;42.896;20.874;2023-03-01T13:08:31;33.70;;;17.70;;
25381;SDS011;16307;42.896;20.874;2023-03-01T13:11:21;48.85;;;23.77;;
25381;SDS011;16307;42.896;20.874;2023-03-01T13:17:07;46.45;;;22.63;;
25381;SDS011;16307;42.896;20.874;2023-03-01T13:20:19;31.23;;;18.52;;
25381;SDS011;16307;42.896;20.874;2023-03-01T13:23:23;32.95;;;16.58;;
25381;SDS011;16307;42.896;20.874;2023-03-01T13:26:17;33.22;;;18.00;;
25381;SDS011;16307;42.896;20.874;2023-03-01T13:29:11;47.28;;;24.42;;
25381;SDS011;16307;42.896;20.874;2023-03-01T13:35:42;39.55;;;21.83;;
25381;SDS011;16307;42.896;20.874;2023-03-01T13:47:21;47.05;;;24.75;;
25381;SDS011;16307;42.896;20.874;2023-03-01T13:50:15;41.30;;;21.20;;
25381;SDS011;16307;42.896;20.874;2023-03-01T13:53:04;30.42;;;16.92;;
25381;SDS011;16307;42.896;20.874;2023-03-01T13:55:55;24.00;;;13.73;;
25381;SDS011;16307;42.896;20.874;2023-03-01T14:01:35;30.55;;;15.82;;
25381;SDS011;16307;42.896;20.874;2023-03-01T14:04:23;32.08;;;14.85;;
25381;SDS011;16307;42.896;20.874;2023-03-01T14:07:12;32.08;;;15.10;;
25381;SDS011;16307;42.896;20.874;2023-03-01T14:10:05;29.88;;;14.95;;
25381;SDS011;16307;42.896;20.874;2023-03-01T14:13:00;29.55;;;15.07;;
25381;SDS011;16307;42.896;20.874;2023-03-01T14:28:13;37.28;;;17.20;;
25381;SDS011;16307;42.896;20.874;2023-03-01T14:31:29;25.55;;;14.23;;
25381;SDS011;16307;42.896;20.874;2023-03-01T14:34:21;42.35;;;19.42;;
25381;SDS011;16307;42.896;20.874;2023-03-01T14:37:31;44.25;;;23.52;;
25381;SDS011;16307;42.896;20.874;2023-03-01T14:40:24;38.42;;;21.08;;
25381;SDS011;16307;42.896;20.874;2023-03-01T14:43:16;52.47;;;26.27;;
25381;SDS011;16307;42.896;20.874;2023-03-01T14:46:05;56.10;;;26.48;;
25381;SDS011;16307;42.896;20.874;2023-03-01T14:48:53;70.07;;;30.85;;
25381;SDS011;16307;42.896;20.874;2023-03-01T14:51:42;66.47;;;30.85;;
25381;SDS011;16307;42.896;20.874;2023-03-01T14:57:26;67.65;;;35.67;;
25381;SDS011;16307;42.896;20.874;2023-03-01T15:00:16;64.65;;;32.08;;
25381;SDS011;16307;42.896;20.874;2023-03-01T15:03:08;49.73;;;24.93;;
25381;SDS011;16307;42.896;20.874;2023-03-01T15:06:00;43.63;;;23.58;;
25381;SDS011;16307;42.896;20.874;2023-03-01T15:08:48;51.28;;;23.92;;
25381;SDS011;16307;42.896;20.874;2023-03-01T15:11:36;58.95;;;26.73;;
25381;SDS011;16307;42.896;20.874;2023-03-01T15:14:46;50.60;;;23.63;;
25381;SDS011;16307;42.896;20.874;2023-03-01T15:17:54;37.03;;;17.83;;
25381;SDS011;16307;42.896;20.874;2023-03-01T15:20:42;35.40;;;17.85;;
25381;SDS011;16307;42.896;20.874;2023-03-01T15:23:29;24.73;;;12.20;;
25381;SDS011;16307;42.896;20.874;2023-03-01T15:26:23;24.27;;;12.70;;
25381;SDS011;16307;42.896;20.874;2023-03-01T15:29:22;30.23;;;15.32;;
25381;SDS011;16307;42.896;20.874;2023-03-01T15:38:34;34.75;;;16.45;;
25381;SDS011;16307;42.896;20.874;2023-03-01T15:41:27;32.55;;;15.77;;
25381;SDS011;16307;42.896;20.874;2023-03-01T15:44:23;39.75;;;18.92;;
25381;SDS011;16307;42.896;20.874;2023-03-01T15:47:23;41.00;;;20.17;;
25381;SDS011;16307;42.896;20.874;2023-03-01T15:53:31;44.25;;;21.50;;
25381;SDS011;16307;42.896;20.874;2023-03-01T15:56:20;36.20;;;20.15;;
25381;SDS011;16307;42.896;20.874;2023-03-01T15:59:10;38.15;;;20.23;;
25381;SDS011;16307;42.896;20.874;2023-03-01T16:02:00;41.65;;;22.25;;
25381;SDS011;16307;42.896;20.874;2023-03-01T16:04:46;44.95;;;23.38;;
25381;SDS011;16307;42.896;20.874;2023-03-01T16:07:34;44.70;;;22.05;;
25381;SDS011;16307;42.896;20.874;2023-03-01T16:10:25;51.67;;;25.42;;
25381;SDS011;16307;42.896;20.874;2023-03-01T16:13:12;47.33;;;23.52;;
25381;SDS011;16307;42.896;20.874;2023-03-01T16:15:58;49.78;;;24.80;;
25381;SDS011;16307;42.896;20.874;2023-03-01T16:18:45;47.83;;;23.20;;
25381;SDS011;16307;42.896;20.874;2023-03-01T16:21:32;39.08;;;18.80;;
25381;SDS011;16307;42.896;20.874;2023-03-01T16:24:18;46.80;;;21.02;;
25381;SDS011;16307;42.896;20.874;2023-03-01T16:27:04;40.20;;;19.05;;
25381;SDS011;16307;42.896;20.874;2023-03-01T16:29:50;44.47;;;20.92;;
25381;SDS011;16307;42.896;20.874;2023-03-01T16:32:39;39.88;;;18.88;;
25381;SDS011;16307;42.896;20.874;2023-03-01T16:35:26;46.72;;;19.85;;
25381;SDS011;16307;42.896;20.874;2023-03-01T16:38:12;36.28;;;18.38;;
25381;SDS011;16307;42.896;20.874;2023-03-01T16:40:58;32.83;;;16.20;;
25381;SDS011;16307;42.896;20.874;2023-03-01T16:43:44;41.30;;;19.60;;
25381;SDS011;16307;42.896;20.874;2023-03-01T16:46:32;43.92;;;20.80;;
25381;SDS011;16307;42.896;20.874;2023-03-01T16:49:18;40.35;;;20.20;;
25381;SDS011;16307;42.896;20.874;2023-03-01T16:52:04;37.42;;;18.38;;
25381;SDS011;16307;42.896;20.874;2023-03-01T16:54:50;36.28;;;17.23;;
25381;SDS011;16307;42.896;20.874;2023-03-01T16:57:37;36.08;;;16.38;;
25381;SDS011;16307;42.896;20.874;2023-03-01T17:00:24;41.95;;;17.85;;
25381;SDS011;16307;42.896;20.874;2023-03-01T17:03:10;40.72;;;19.08;;
25381;SDS011;16307;42.896;20.874;2023-03-01T17:05:56;42.20;;;18.23;;
25381;SDS011;16307;42.896;20.874;2023-03-01T17:08:42;35.08;;;15.13;;
25381;SDS011;16307;42.896;20.874;2023-03-01T17:11:28;36.70;;;17.55;;
25381;SDS011;16307;42.896;20.874;2023-03-01T17:14:15;54.55;;;22.95;;
25381;SDS011;16307;42.896;20.874;2023-03-01T17:17:01;38.25;;;16.83;;
25381;SDS011;16307;42.896;20.874;2023-03-01T17:19:48;39.75;;;17.73;;
25381;SDS011;16307;42.896;20.874;2023-03-01T17:22:34;34.42;;;17.23;;
25381;SDS011;16307;42.896;20.874;2023-03-01T17:25:20;39.53;;;17.73;;
25381;SDS011;16307;42.896;20.874;2023-03-01T17:28:06;38.72;;;17.88;;
25381;SDS011;16307;42.896;20.874;2023-03-01T17:30:52;33.35;;;15.68;;
25381;SDS011;16307;42.896;20.874;2023-03-01T17:33:39;31.00;;;15.20;;
25381;SDS011;16307;42.896;20.874;2023-03-01T17:36:27;39.88;;;19.95;;
25381;SDS011;16307;42.896;20.874;2023-03-01T17:39:13;40.38;;;19.30;;
25381;SDS011;16307;42.896;20.874;2023-03-01T17:41:59;50.22;;;22.45;;
25381;SDS011;16307;42.896;20.874;2023-03-01T17:44:45;40.92;;;21.02;;
25381;SDS011;16307;42.896;20.874;2023-03-01T17:47:31;40.97;;;19.67;;
25381;SDS011;16307;42.896;20.874;2023-03-01T17:50:17;44.60;;;22.60;;
25381;SDS011;16307;42.896;20.874;2023-03-01T17:53:05;44.60;;;21.30;;
25381;SDS011;16307;42.896;20.874;2023-03-01T17:55:58;39.53;;;19.77;;
25381;SDS011;16307;42.896;20.874;2023-03-01T17:58:45;46.35;;;20.70;;
25381;SDS011;16307;42.896;20.874;2023-03-01T18:01:32;38.70;;;19.50;;
25381;SDS011;16307;42.896;20.874;2023-03-01T18:04:20;42.55;;;20.75;;
25381;SDS011;16307;42.896;20.874;2023-03-01T18:07:06;39.67;;;20.27;;
25381;SDS011;16307;42.896;20.874;2023-03-01T18:09:52;48.67;;;19.67;;
25381;SDS011;16307;42.896;20.874;2023-03-01T18:12:38;38.35;;;19.48;;
25381;SDS011;16307;42.896;20.874;2023-03-01T18:15:24;35.90;;;18.05;;
25381;SDS011;16307;42.896;20.874;2023-03-01T18:18:10;41.35;;;18.50;;
25381;SDS011;16307;42.896;20.874;2023-03-01T18:20:57;43.00;;;19.38;;
25381;SDS011;16307;42.896;20.874;2023-03-01T18:23:43;37.28;;;19.50;;
25381;SDS011;16307;42.896;20.874;2023-03-01T18:26:29;42.15;;;19.95;;
25381;SDS011;16307;42.896;20.874;2023-03-01T18:29:15;46.90;;;20.75;;